Time;durP1;ratioP1;P1;durP2;ratioP2;P2;SDS_P1;SDS_P2;PMS_P1;PMS_P2;Temp;Humidity;BMP_temperature;BMP_pressure;BME280_temperature;BME280_humidity;BME280_pressure;Samples;Min_cycle;Max_cycle;Signal;HPM_P1;HPM_P2
2023/09/13 00:02:24;;;;;;;14.50;9.07;;;;;;;26.74;52.22;100695.34;5118931;28;20050;-79
2023/09/13 00:05:16;;;;;;;;;;;;;;;26.74;51.84;100700.13;5119676;28;20039;-81
2023/09/13 00:08:11;;;;;;;16.20;8.52;;;;;;;26.70;52.16;100702.22;5122415;28;19915;-81
2023/09/13 00:11:09;;;;;;;;;;;;;;;26.69;52.39;100707.00;5118457;28;20406;-80
2023/09/13 00:14:04;;;;;;;12.60;7.90;;;;;;;26.67;52.32;100703.03;5118852;28;19915;-81
2023/09/13 00:16:56;;;;;;;;;;;;;;;26.64;52.18;100698.31;5118680;28;20046;-81
2023/09/13 00:19:50;;;;;;;13.85;8.43;;;;;;;26.61;52.24;100699.19;5118181;28;20274;-81
2023/09/13 00:22:45;;;;;;;12.57;8.40;;;;;;;26.59;52.75;100696.03;5122342;28;20055;-81
2023/09/13 00:25:41;;;;;;;11.98;8.52;;;;;;;26.58;52.44;100700.03;5117081;28;20057;-80
2023/09/13 00:28:35;;;;;;;13.73;9.80;;;;;;;26.55;52.38;100703.66;5117557;28;20039;-81
2023/09/13 00:31:30;;;;;;;13.45;9.43;;;;;;;26.51;52.98;100700.94;5119124;28;20039;-81
2023/09/13 00:34:22;;;;;;;;;;;;;;;26.52;52.75;100696.13;5119696;28;20044;-80
2023/09/13 00:37:17;;;;;;;12.98;8.85;;;;;;;26.46;52.59;100684.69;5118134;28;19912;-80
2023/09/13 00:40:09;;;;;;;;;;;;;;;26.47;52.61;100689.03;5117837;28;20047;-80
2023/09/13 00:43:03;;;;;;;12.07;9.40;;;;;;;26.45;52.98;100671.16;5117234;28;19912;-80
2023/09/13 00:45:59;;;;;;;11.38;9.40;;;;;;;26.42;52.64;100666.41;5121263;28;20047;-80
2023/09/13 00:48:53;;;;;;;13.57;10.05;;;;;;;26.39;52.61;100668.88;5117554;28;20040;-80
2023/09/13 00:51:48;;;;;;;11.25;10.02;;;;;;;26.38;52.65;100661.69;5118764;28;20043;-80
2023/09/13 00:54:40;;;;;;;;;;;;;;;26.36;52.80;100666.91;5118216;28;20043;-81
2023/09/13 00:57:35;;;;;;;14.80;9.77;;;;;;;26.36;52.45;100664.13;5117099;28;19919;-80
2023/09/13 01:00:30;;;;;;;19.73;10.82;;;;;;;26.34;52.65;100660.97;5120696;28;20047;-80
2023/09/13 01:03:23;;;;;;;;;;;;;;;26.31;52.56;100664.59;5118781;28;20036;-81
2023/09/13 01:06:18;;;;;;;14.50;10.57;;;;;;;26.29;52.59;100655.88;5122182;28;19912;-81
2023/09/13 01:09:13;;;;;;;13.18;10.57;;;;;;;26.28;52.64;100648.72;5119144;28;20407;-80
2023/09/13 01:12:06;;;;;;;14.95;10.05;;;;;;;26.26;52.84;100651.13;5116996;28;20047;-81
2023/09/13 01:15:01;;;;;;;16.83;11.38;;;;;;;26.23;53.06;100648.44;5117265;28;20110;-80
2023/09/13 01:18:03;;;;;;;15.20;10.90;;;;;;;26.23;52.58;100646.44;5117447;28;20035;-80
2023/09/13 01:21:17;;;;;;;12.93;11.63;;;;;;;26.21;52.63;100657.16;5116472;28;20039;-81
2023/09/13 01:24:30;;;;;;;12.45;10.90;;;;;;;26.20;52.88;100652.03;5116555;28;20044;-80
2023/09/13 01:27:47;;;;;;;12.75;10.48;;;;;;;26.18;52.66;100644.09;5114215;28;20567;-81
2023/09/13 01:30:40;;;;;;;20.65;12.35;;;;;;;26.18;52.96;100644.09;5117572;28;20044;-80
2023/09/13 01:33:35;;;;;;;15.50;11.30;;;;;;;26.15;52.76;100644.94;5117413;28;20044;-80
2023/09/13 01:36:30;;;;;;;18.80;12.02;;;;;;;26.13;53.09;100641.78;5118722;28;20036;-81
2023/09/13 01:39:22;;;;;;;;;;;;;;;26.11;53.01;100644.19;5116826;28;20036;-80
2023/09/13 01:42:17;;;;;;;14.43;11.45;;;;;;;26.09;53.23;100638.28;5116521;28;19916;-80
2023/09/13 01:45:14;;;;;;;19.58;12.00;;;;;;;26.09;53.09;100648.63;5117308;28;20445;-80
2023/09/13 01:48:07;;;;;;;17.55;11.90;;;;;;;26.04;53.15;100640.75;5116517;28;20043;-80
2023/09/13 01:51:02;;;;;;;21.17;11.60;;;;;;;26.03;53.14;100639.97;5118608;28;20043;-81
2023/09/13 01:53:54;;;;;;;;;;;;;;;26.01;53.20;100636.78;5116571;28;20031;-80
2023/09/13 01:56:48;;;;;;;19.35;10.77;;;;;;;25.98;53.01;100641.22;5119547;28;19915;-80
2023/09/13 01:59:41;;;;;;;;;;;;;;;25.97;53.02;100639.66;5117631;28;20032;-80
2023/09/13 02:02:33;;;;;;;17.02;11.40;;;;;;;25.94;53.13;100634.94;5116046;28;19911;-81
2023/09/13 02:05:27;;;;;;;14.88;11.40;;;;;;;25.95;52.99;100639.28;5116072;28;20040;-81
2023/09/13 02:08:22;;;;;;;16.95;12.40;;;;;;;25.93;53.06;100635.34;5116590;28;20039;-80
2023/09/13 02:11:16;;;;;;;13.68;11.68;;;;;;;25.91;53.15;100640.53;5116339;28;20399;-80
2023/09/13 02:14:10;;;;;;;13.68;10.38;;;;;;;25.88;53.42;100641.38;5117170;28;20406;-81
2023/09/13 02:17:05;;;;;;;15.73;11.48;;;;;;;25.85;53.13;100637.44;5120892;28;20035;-81
2023/09/13 02:20:00;;;;;;;13.00;10.48;;;;;;;25.83;53.29;100634.28;5116025;28;20499;-81
2023/09/13 02:22:54;;;;;;;12.30;10.63;;;;;;;25.83;53.30;100625.16;5116143;28;20040;-80
2023/09/13 02:25:49;;;;;;;14.80;10.95;;;;;;;25.79;53.30;100632.78;5119614;28;20051;-80
2023/09/13 02:28:43;;;;;;;15.43;10.55;;;;;;;25.79;53.48;100638.34;5116552;28;20043;-80
2023/09/13 02:31:38;;;;;;;19.35;11.80;;;;;;;25.78;53.30;100642.34;5116129;28;20043;-81
2023/09/13 02:34:33;;;;;;;15.68;11.30;;;;;;;25.77;53.50;100643.53;5118069;28;20406;-80
2023/09/13 02:37:27;;;;;;;12.27;10.75;;;;;;;25.73;53.63;100651.97;5115951;28;20411;-80
2023/09/13 02:40:19;;;;;;;;;;;;;;;25.75;53.65;100651.53;5119007;28;20035;-80
2023/09/13 02:43:14;;;;;;;16.42;12.07;;;;;;;25.76;53.11;100651.09;5115656;28;19912;-81
2023/09/13 02:46:08;;;;;;;13.95;10.77;;;;;;;25.77;52.82;100644.34;5115037;28;20043;-79
2023/09/13 02:49:03;;;;;;;14.48;10.90;;;;;;;25.76;53.21;100642.75;5117812;28;20035;-81
2023/09/13 02:52:00;;;;;;;16.48;10.90;;;;;;;25.76;53.11;100644.75;5115745;28;20498;-80
2023/09/13 02:54:55;;;;;;;14.90;11.18;;;;;;;25.76;52.83;100653.09;5115786;28;20040;-80
2023/09/13 02:57:47;;;;;;;12.98;9.18;;;;;;;25.75;52.75;100654.34;5115571;28;20035;-81
2023/09/13 03:00:42;;;;;;;14.52;10.77;;;;;;;25.74;53.08;100656.31;5114573;28;20042;-80
2023/09/13 03:03:37;;;;;;;17.23;11.82;;;;;;;25.72;53.22;100655.16;5115865;28;20032;-80
2023/09/13 03:06:29;;;;;;;11.85;9.88;;;;;;;25.71;53.11;100639.66;5115672;28;20051;-80
2023/09/13 03:09:21;;;;;;;12.27;9.98;;;;;;;25.68;53.40;100634.91;5119624;28;20044;-80
2023/09/13 03:12:16;;;;;;;11.95;10.15;;;;;;;25.66;53.53;100642.91;5115446;28;20043;-80
2023/09/13 03:15:12;;;;;;;14.65;10.02;;;;;;;25.65;53.26;100642.09;5115286;28;20406;-81
2023/09/13 03:18:06;;;;;;;14.15;10.80;;;;;;;25.64;53.67;100636.97;5118326;28;20039;-80
2023/09/13 03:20:58;;;;;;;;;;;;;;;25.63;53.48;100638.19;5115718;28;20040;-81
2023/09/13 03:23:53;;;;;;;13.20;10.32;;;;;;;25.63;53.55;100638.19;5119979;28;19911;-80
2023/09/13 03:26:47;;;;;;;12.65;10.38;;;;;;;25.59;53.56;100638.25;5117351;28;20040;-81
2023/09/13 03:29:42;;;;;;;15.07;11.00;;;;;;;25.55;53.63;100635.47;5114227;28;20048;-81
2023/09/13 03:32:37;;;;;;;12.48;10.70;;;;;;;25.57;53.49;100623.13;5112170;28;20040;-81
2023/09/13 03:35:29;;;;;;;18.33;11.18;;;;;;;25.56;53.40;100619.56;5115041;28;20055;-80
2023/09/13 03:38:24;;;;;;;13.10;11.73;;;;;;;25.55;53.44;100629.13;5115256;28;20036;-79
2023/09/13 03:41:19;;;;;;;15.32;11.30;;;;;;;25.50;54.01;100633.13;5117845;28;20047;-80
2023/09/13 03:44:13;;;;;;;12.52;10.82;;;;;;;25.49;54.03;100637.16;5115617;28;20035;-80
2023/09/13 03:47:06;;;;;;;;;;;;;;;25.49;53.88;100650.28;5119242;28;20044;-79
2023/09/13 03:50:00;;;;;;;14.32;11.13;;;;;;;25.45;53.85;100641.97;5116656;28;19919;-81
2023/09/13 03:52:55;;;;;;;20.83;12.63;;;;;;;25.44;54.23;100651.53;5116681;28;20044;-80
2023/09/13 03:55:44;;;;;;;;;;;;;;;25.44;54.01;100634.03;5119325;28;20036;-80
2023/09/13 03:58:40;;;;;;;14.73;10.55;;;;;;;25.39;54.40;100638.09;5117777;28;19916;-80
2023/09/13 04:01:35;;;;;;;14.27;11.02;;;;;;;25.37;54.32;100640.50;5118753;28;20039;-80
2023/09/13 04:04:27;;;;;;;;;;;;;;;25.37;54.52;100632.13;5114196;28;20044;-80
2023/09/13 04:07:21;;;;;;;15.93;11.85;;;;;;;25.34;54.42;100632.97;5112939;28;20290;-80
2023/09/13 04:10:16;;;;;;;13.88;11.55;;;;;;;25.32;54.41;100632.59;5111687;28;20503;-81
2023/09/13 04:13:08;;;;;;;;;;;;;;;25.33;54.64;100630.59;5114635;28;20055;-80
2023/09/13 04:16:02;;;;;;;16.27;11.32;;;;;;;25.27;54.57;100621.94;5116077;28;19915;-81
2023/09/13 04:18:56;;;;;;;18.73;13.70;;;;;;;25.29;54.80;100625.09;5118262;28;20040;-80
2023/09/13 04:21:48;;;;;;;;;;;;;;;25.28;54.73;100633.84;5117980;28;20043;-81
2023/09/13 04:24:40;;;;;;;12.60;11.27;;;;;;;25.26;54.67;100627.91;5112669;28;19912;-81
2023/09/13 04:27:33;;;;;;;;;;;;;;;25.26;54.88;100636.25;5119941;28;20036;-81
2023/09/13 04:30:27;;;;;;;16.23;12.57;;;;;;;25.22;54.98;100639.09;5117122;28;19916;-80
2023/09/13 04:33:20;;;;;;;17.77;12.55;;;;;;;25.20;55.07;100635.91;5108289;28;20040;-80
2023/09/13 04:36:14;;;;;;;24.75;13.93;;;;;;;25.19;55.19;100631.59;5112744;28;20035;-80
2023/09/13 04:39:08;;;;;;;17.20;14.30;;;;;;;25.19;55.09;100633.56;5116329;28;20036;-80
2023/09/13 04:42:03;;;;;;;21.00;14.48;;;;;;;25.17;55.46;100633.97;5097579;28;20036;-81
2023/09/13 04:44:58;;;;;;;22.17;14.38;;;;;;;25.17;55.26;100642.34;5096937;28;20044;-80
2023/09/13 04:47:50;;;;;;;;;;;;;;;25.16;55.72;100637.97;5097630;28;20399;-80
2023/09/13 04:50:44;;;;;;;17.83;15.60;;;;;;;25.16;55.58;100642.75;5106423;28;20293;-80
2023/09/13 04:53:39;;;;;;;27.13;17.17;;;;;;;25.15;55.63;100655.88;5117829;28;20035;-80
2023/09/13 04:56:31;;;;;;;;;;;;;;;25.17;55.65;100661.81;5121207;28;20039;-82
2023/09/13 04:59:27;;;;;;;24.75;18.55;;;;;;;25.14;55.74;100673.78;5118135;28;19911;-81
2023/09/13 05:02:21;;;;;;;28.58;21.50;;;;;;;25.13;55.94;100669.44;5115905;28;20486;-81
2023/09/13 05:05:16;;;;;;;25.92;18.60;;;;;;;25.12;56.10;100673.41;5115653;28;20032;-81
2023/09/13 05:08:10;;;;;;;26.45;20.10;;;;;;;25.10;56.55;100686.94;5114228;28;20414;-81
2023/09/13 05:11:03;;;;;;;;;;;;;;;25.11;56.43;100700.44;5102665;28;20032;-81
2023/09/13 05:14:18;;;;;;;32.20;20.02;;;;;;;25.08;56.60;100703.28;5104772;28;19927;-80
2023/09/13 05:17:10;;;;;;;;;;;;;;;25.07;56.76;100729.53;5115710;28;20036;-81
2023/09/13 05:20:05;;;;;;;26.42;21.35;;;;;;;25.03;56.89;100734.34;5117198;28;19912;-79
2023/09/13 05:23:00;;;;;;;28.80;21.73;;;;;;;25.02;56.87;100727.97;5121403;28;20039;-79
2023/09/13 05:25:52;;;;;;;;;;;;;;;25.04;57.17;100733.16;5119774;28;20048;-79
2023/09/13 05:28:46;;;;;;;31.88;21.13;;;;;;;25.02;57.19;100741.91;5115674;28;19915;-79
2023/09/13 05:31:41;;;;;;;35.55;21.77;;;;;;;25.03;57.38;100745.47;5119029;28;20031;-79
2023/09/13 05:34:33;;;;;;;;;;;;;;;25.02;57.34;100757.81;5117503;28;20035;-79
2023/09/13 05:37:27;;;;;;;62.28;24.58;;;;;;;25.00;57.71;100751.84;5121439;28;19915;-78
2023/09/13 05:40:22;;;;;;;42.50;22.90;;;;;;;25.00;57.58;100755.41;5117060;28;20403;-79
2023/09/13 05:43:17;;;;;;;41.33;23.65;;;;;;;25.02;57.77;100752.25;5117121;28;20035;-79
2023/09/13 05:46:09;;;;;;;34.17;21.58;;;;;;;24.99;57.65;100750.28;5120648;28;20036;-78
2023/09/13 05:49:04;;;;;;;32.83;20.30;;;;;;;25.00;57.55;100757.41;5116949;28;20047;-79
2023/09/13 05:51:58;;;;;;;34.22;19.42;;;;;;;24.98;57.53;100752.28;5117181;28;20043;-78
2023/09/13 05:54:53;;;;;;;26.40;17.67;;;;;;;24.98;57.94;100759.84;5117924;28;20756;-79
2023/09/13 05:57:47;;;;;;;25.05;18.35;;;;;;;25.01;57.65;100751.44;5117023;28;20031;-78
2023/09/13 06:00:42;;;;;;;27.48;20.80;;;;;;;24.99;57.73;100744.72;5120728;28;20031;-78
2023/09/13 06:03:36;;;;;;;30.85;20.20;;;;;;;25.00;58.15;100746.28;5110619;28;20028;-78
2023/09/13 06:06:29;;;;;;;;;;;;;;;24.97;58.18;100747.91;5115763;28;20043;-78
2023/09/13 06:09:23;;;;;;;35.72;19.33;;;;;;;24.97;58.08;100761.03;5116321;28;19919;-78
2023/09/13 06:12:16;;;;;;;;;;;;;;;25.00;58.10;100760.19;5117517;28;20044;-79
2023/09/13 06:15:11;;;;;;;27.65;19.27;;;;;;;24.99;58.47;100758.63;5116855;28;19916;-78
2023/09/13 06:18:06;;;;;;;32.70;21.90;;;;;;;24.99;58.58;100750.28;5116584;28;20043;-78
2023/09/13 06:21:00;;;;;;;22.77;19.05;;;;;;;24.98;58.70;100748.69;5117011;28;20399;-79
2023/09/13 06:23:53;;;;;;;;;;;;;;;24.98;58.75;100752.28;5117633;28;20039;-78
2023/09/13 06:26:44;;;;;;;25.65;19.90;;;;;;;24.97;58.82;100755.47;5117044;28;19911;-78
2023/09/13 06:29:39;;;;;;;27.50;21.05;;;;;;;25.00;58.79;100744.28;5116427;28;20032;-79
2023/09/13 06:32:31;;;;;;;;;;;;;;;25.00;58.65;100740.72;5114461;28;20414;-79
2023/09/13 06:35:26;;;;;;;33.03;22.48;;;;;;;24.98;58.84;100734.78;5114332;28;19912;-79
2023/09/13 06:38:21;;;;;;;23.63;18.10;;;;;;;24.98;58.90;100726.44;5111994;28;20032;-80
2023/09/13 06:41:13;;;;;;;;;;;;;;;25.00;58.79;100738.72;5125152;27;20039;-78
2023/09/13 06:44:09;;;;;;;26.63;18.65;;;;;;;24.99;58.93;100737.13;5114369;28;19911;-79
2023/09/13 06:47:03;;;;;;;27.10;20.77;;;;;;;24.99;59.00;100736.38;5109421;28;20031;-78
2023/09/13 06:49:58;;;;;;;31.83;18.38;;;;;;;24.98;59.06;100734.78;5108444;28;20035;-79
2023/09/13 06:52:52;;;;;;;27.30;19.38;;;;;;;24.97;59.11;100733.19;5115719;28;20035;-79
2023/09/13 06:55:45;;;;;;;;;;;;;;;24.99;58.92;100741.94;5114053;28;20050;-80
2023/09/13 06:58:39;;;;;;;24.80;17.92;;;;;;;24.99;58.87;100758.63;5108950;28;19916;-78
2023/09/13 07:01:32;;;;;;;22.48;18.05;;;;;;;25.00;59.46;100772.13;5108352;28;20035;-78
2023/09/13 07:04:26;;;;;;;24.80;18.92;;;;;;;25.01;59.86;100773.69;5114803;28;20418;-78
2023/09/13 07:07:20;;;;;;;25.15;18.33;;;;;;;25.01;59.79;100779.28;5116029;28;20036;-79
2023/09/13 07:10:13;;;;;;;;;;;;;;;25.04;59.98;100783.22;5105368;28;20039;-79
2023/09/13 07:13:07;;;;;;;22.83;18.33;;;;;;;25.05;60.01;100793.94;5108803;28;19911;-79
2023/09/13 07:16:00;;;;;;;24.40;19.27;;;;;;;25.04;60.04;100795.13;5115275;28;20040;-80
2023/09/13 07:18:54;;;;;;;30.83;19.33;;;;;;;25.04;60.16;100805.50;5106474;28;20416;-80
2023/09/13 07:21:49;;;;;;;34.85;22.05;;;;;;;25.03;60.35;100807.50;5115626;28;20379;-79
2023/09/13 07:24:41;;;;;;;;;;;;;;;25.05;60.45;100818.19;5113489;28;20032;-79
2023/09/13 07:27:33;;;;;;;22.83;18.30;;;;;;;25.06;60.41;100817.00;5119980;28;19911;-79
2023/09/13 07:30:27;;;;;;;32.95;19.13;;;;;;;25.05;60.98;100820.97;5119887;28;20040;-79
2023/09/13 07:33:22;;;;;;;32.65;19.55;;;;;;;25.07;61.15;100826.94;5120163;28;20036;-79
2023/09/13 07:36:16;;;;;;;25.23;18.92;;;;;;;25.06;61.13;100828.91;5120321;28;20040;-78
2023/09/13 07:39:09;;;;;;;;;;;;;;;25.10;61.40;100845.56;5120008;28;20043;-79
2023/09/13 07:42:03;;;;;;;25.63;20.83;;;;;;;25.07;61.87;100844.41;5114813;28;19920;-80
2023/09/13 07:44:55;;;;;;;;;;;;;;;25.08;61.72;100839.66;5111744;28;20035;-80
2023/09/13 07:47:50;;;;;;;28.58;22.25;;;;;;;25.09;61.58;100835.66;5114158;28;19915;-80
2023/09/13 07:50:45;;;;;;;33.67;22.17;;;;;;;25.07;61.47;100821.34;5117327;28;20040;-79
2023/09/13 07:53:37;;;;;;;32.25;21.63;;;;;;;25.06;61.44;100820.56;5121306;28;20035;-79
2023/09/13 07:56:31;;;;;;;29.08;22.23;;;;;;;25.09;61.42;100830.09;5119775;28;20044;-79
2023/09/13 07:59:26;;;;;;;29.42;20.15;;;;;;;25.09;61.26;100841.25;5119076;28;20039;-80
2023/09/13 08:02:20;;;;;;;30.05;22.63;;;;;;;25.08;61.43;100845.22;5119797;28;20043;-79
2023/09/13 08:05:15;;;;;;;35.75;23.00;;;;;;;25.09;61.34;100857.94;5117099;28;20031;-80
2023/09/13 08:08:07;;;;;;;32.25;21.70;;;;;;;25.10;61.26;100865.06;5114103;28;20039;-79
2023/09/13 08:11:02;;;;;;;29.50;22.20;;;;;;;25.10;61.37;100873.41;5119131;28;20035;-80
2023/09/13 08:13:56;;;;;;;34.67;25.40;;;;;;;25.10;61.60;100882.56;5113829;28;20040;-79
2023/09/13 08:16:48;;;;;;;33.40;24.52;;;;;;;25.10;61.75;100888.13;5114367;28;20035;-80
2023/09/13 08:19:43;;;;;;;32.67;25.27;;;;;;;25.10;61.74;100885.34;5113585;28;20035;-79
2023/09/13 08:22:37;;;;;;;32.28;25.20;;;;;;;25.11;61.90;100889.72;5121715;28;20044;-80
2023/09/13 08:25:32;;;;;;;30.73;21.17;;;;;;;25.12;61.91;100893.28;5119211;28;20043;-80
2023/09/13 08:28:24;;;;;;;28.27;23.15;;;;;;;25.10;61.76;100882.56;5122452;28;20028;-79
2023/09/13 08:31:16;;;;;;;;;;;;;;;25.13;61.61;100892.88;5120537;28;20036;-79
2023/09/13 08:34:11;;;;;;;32.33;21.70;;;;;;;25.13;61.94;100887.31;5115047;28;20378;-79
2023/09/13 08:37:06;;;;;;;39.30;25.25;;;;;;;25.11;61.96;100889.72;5098275;28;20684;-79
2023/09/13 08:40:00;;;;;;;38.15;24.48;;;;;;;25.14;61.75;100890.91;5099344;28;20399;-78
2023/09/13 08:42:56;;;;;;;30.05;22.98;;;;;;;25.17;61.72;100894.84;5106020;28;20040;-79
2023/09/13 08:45:51;;;;;;;34.97;23.35;;;;;;;25.14;61.97;100883.31;5109871;28;20036;-80
2023/09/13 08:48:48;;;;;;;32.97;23.83;;;;;;;25.15;61.98;100884.09;5115700;28;20402;-79
2023/09/13 08:51:43;;;;;;;34.35;24.90;;;;;;;25.15;62.15;100878.53;5118936;28;20040;-80
2023/09/13 08:54:38;;;;;;;29.83;21.90;;;;;;;25.16;62.15;100876.53;5119092;28;20406;-79
2023/09/13 08:57:33;;;;;;;30.90;22.00;;;;;;;25.17;62.04;100876.16;5119522;28;20035;-79
2023/09/13 09:00:30;;;;;;;31.27;21.55;;;;;;;25.17;62.64;100876.16;5119176;28;20035;-79
2023/09/13 09:03:25;;;;;;;36.97;26.13;;;;;;;25.18;62.52;100871.38;5118364;28;20035;-79
2023/09/13 09:06:20;;;;;;;32.17;22.23;;;;;;;25.18;62.06;100866.59;5122663;28;20040;-79
2023/09/13 09:09:15;;;;;;;31.92;21.45;;;;;;;25.22;61.86;100864.56;5119501;28;20498;-79
2023/09/13 09:12:13;;;;;;;42.85;26.55;;;;;;;25.22;61.79;100864.56;5116748;28;20514;-80
2023/09/13 09:15:10;;;;;;;42.53;27.15;;;;;;;25.25;61.31;100866.50;5111331;28;20435;-79
2023/09/13 09:18:06;;;;;;;31.48;20.90;;;;;;;25.27;61.52;100858.56;5111926;28;20047;-79
2023/09/13 09:21:01;;;;;;;37.47;25.08;;;;;;;25.30;61.57;100862.50;5111800;28;20036;-79
2023/09/13 09:23:56;;;;;;;31.40;20.98;;;;;;;25.30;61.24;100868.84;5096660;28;20048;-80
2023/09/13 09:26:51;;;;;;;35.80;22.67;;;;;;;25.34;60.64;100864.06;5100431;28;20043;-80
2023/09/13 09:29:45;;;;;;;35.33;21.45;;;;;;;25.34;60.33;100866.84;5096921;28;20040;-79
2023/09/13 09:32:43;;;;;;;36.08;21.27;;;;;;;25.38;60.44;100858.47;5097684;28;20040;-80
2023/09/13 09:35:32;;;;;;;27.63;22.25;;;;;;;25.39;60.11;100860.03;5097780;28;20052;-79
2023/09/13 09:38:27;;;;;;;39.35;26.17;;;;;;;25.41;59.76;100847.28;5098104;28;20036;-79
2023/09/13 09:41:17;;;;;;;29.77;21.58;;;;;;;25.43;59.49;100844.09;5097457;28;20048;-79
2023/09/13 09:44:12;;;;;;;31.40;23.55;;;;;;;25.45;59.36;100834.09;5097461;28;20044;-78
2023/09/13 09:47:06;;;;;;;30.90;19.67;;;;;;;25.47;59.03;100842.84;5101863;28;20035;-79
2023/09/13 09:50:03;;;;;;;;;;;;;;;25.50;58.79;100846.78;5117499;28;20043;-80
2023/09/13 09:52:57;;;;;;;29.42;20.45;;;;;;;25.50;58.90;100841.22;5118513;28;19912;-80
2023/09/13 09:55:52;;;;;;;29.98;18.75;;;;;;;25.53;58.55;100834.84;5115991;28;20032;-78
2023/09/13 09:58:47;;;;;;;30.38;17.73;;;;;;;25.53;58.35;100827.25;5107515;28;20047;-80
2023/09/13 10:01:46;;;;;;;23.95;18.17;;;;;;;25.55;58.12;100822.09;5101377;28;20407;-79
2023/09/13 10:04:48;;;;;;;29.02;18.52;;;;;;;25.55;57.84;100824.88;5101050;28;20044;-80
2023/09/13 10:07:54;;;;;;;27.35;18.05;;;;;;;25.59;57.75;100835.19;5110864;28;20574;-79
2023/09/13 10:10:51;;;;;;;26.60;16.63;;;;;;;25.59;57.70;100827.63;5114579;28;20039;-79
2023/09/13 10:13:45;;;;;;;26.75;15.40;;;;;;;25.58;57.54;100837.19;5116626;28;20039;-79
2023/09/13 10:16:41;;;;;;;24.80;15.93;;;;;;;25.62;56.97;100840.72;5108913;27;20044;-80
2023/09/13 10:19:34;;;;;;;27.23;15.60;;;;;;;25.64;57.15;100837.53;5115221;28;20044;-79
2023/09/13 10:22:30;;;;;;;26.23;16.60;;;;;;;25.65;57.19;100842.66;5106028;28;20039;-79
2023/09/13 10:25:26;;;;;;;21.98;14.18;;;;;;;25.64;57.30;100848.69;5109872;28;20399;-80
2023/09/13 10:28:19;;;;;;;22.60;16.42;;;;;;;25.65;56.91;100845.44;5100999;28;20036;-79
2023/09/13 10:31:15;;;;;;;22.67;10.55;;;;;;;25.68;56.60;100857.78;5117326;27;20405;-79
2023/09/13 10:34:10;;;;;;;11.98;9.02;;;;;;;25.71;55.93;100848.56;5112360;28;20039;-80
2023/09/13 10:37:38;;;;;;;22.33;8.82;;;;;;;25.75;55.76;100846.56;5106522;28;20412;-80
2023/09/13 10:40:40;;;;;;;20.63;7.75;;;;;;;25.78;55.38;100849.31;5095750;28;20419;-80
2023/09/13 10:43:37;;;;;;;11.13;7.68;;;;;;;25.83;56.08;100850.84;5101676;28;20054;-78
2023/09/13 10:46:29;;;;;;;14.02;7.78;;;;;;;25.85;56.01;100842.88;5099597;28;20506;-79
2023/09/13 10:49:21;;;;;;;8.82;6.20;;;;;;;25.92;55.79;100845.56;5096269;28;20043;-79
2023/09/13 10:52:15;;;;;;;9.48;7.63;;;;;;;25.98;56.20;100835.53;5095997;28;20051;-79
2023/09/13 10:55:09;;;;;;;8.75;7.28;;;;;;;26.05;55.59;100829.88;5098180;28;20043;-79
2023/09/13 10:58:03;;;;;;;;;;;;;;;26.11;55.46;100839.31;5114847;28;20046;-80
2023/09/13 11:00:59;;;;;;;10.00;7.60;;;;;;;26.17;55.35;100837.66;5100621;28;19912;-79
2023/09/13 11:03:53;;;;;;;12.65;8.55;;;;;;;26.24;55.08;100826.44;5114760;28;20046;-79
2023/09/13 11:06:50;;;;;;;10.38;7.75;;;;;;;26.31;55.12;100823.53;5115919;28;20051;-80
2023/09/13 11:09:45;;;;;;;12.60;8.50;;;;;;;26.39;55.15;100827.84;5115672;28;20043;-79
2023/09/13 11:12:43;;;;;;;13.55;7.32;;;;;;;26.47;54.95;100822.91;5114675;28;20040;-80
2023/09/13 11:15:35;;;;;;;11.07;7.80;;;;;;;26.53;55.19;100823.25;5118238;28;20418;-80
2023/09/13 11:18:27;;;;;;;16.30;9.38;;;;;;;26.62;54.69;100827.06;5115787;28;20082;-80
2023/09/13 11:21:49;;;;;;;23.27;10.18;;;;;;;26.68;54.61;100813.44;5115743;28;20066;-80
2023/09/13 11:24:40;;;;;;;10.45;8.13;;;;;;;26.72;54.84;100816.97;5115297;28;20039;-80
2023/09/13 11:27:33;;;;;;;17.92;10.20;;;;;;;26.76;54.32;100812.91;5116024;28;20058;-80
2023/09/13 11:30:51;;;;;;;15.75;10.15;;;;;;;26.80;54.65;100824.03;5110448;28;20040;-78
2023/09/13 11:33:55;;;;;;;11.32;8.45;;;;;;;26.83;53.80;100823.16;5117337;28;20043;-79
2023/09/13 11:37:00;;;;;;;14.43;8.43;;;;;;;26.85;54.34;100820.75;5098565;28;20040;-79
2023/09/13 11:40:14;;;;;;;13.00;9.13;;;;;;;26.89;54.00;100826.28;5101770;28;20036;-79
2023/09/13 11:43:11;;;;;;;9.40;7.90;;;;;;;26.90;53.84;100828.66;5099366;28;20043;-79
2023/09/13 11:46:07;;;;;;;8.77;7.13;;;;;;;26.91;53.61;100821.88;5097740;28;20047;-79
2023/09/13 11:49:02;;;;;;;8.85;7.32;;;;;;;26.94;53.39;100818.22;5096531;28;20051;-79
2023/09/13 11:52:04;;;;;;;10.40;6.00;;;;;;;27.01;53.04;100822.91;5096729;28;20048;-79
2023/09/13 11:55:02;;;;;;;11.18;6.20;;;;;;;27.06;53.01;100816.84;5100004;28;20411;-79
2023/09/13 11:57:56;;;;;;;9.85;6.93;;;;;;;27.09;52.35;100825.16;5096378;28;20047;-79
2023/09/13 12:00:48;;;;;;;19.35;6.95;;;;;;;27.14;51.33;100810.69;5104369;28;20040;-80
2023/09/13 12:03:40;;;;;;;8.80;5.50;;;;;;;27.18;51.98;100793.88;5101411;28;20071;-80
2023/09/13 12:06:42;;;;;;;6.72;5.35;;;;;;;27.22;51.74;100791.81;5103279;28;20051;-79
2023/09/13 12:09:35;;;;;;;7.72;6.22;;;;;;;27.29;50.51;100793.69;5097857;28;20110;-79
2023/09/13 12:12:29;;;;;;;7.43;4.93;;;;;;;27.34;50.46;100801.56;5099058;28;20067;-79
2023/09/13 12:15:21;;;;;;;;;;;;;;;27.36;50.68;100799.94;5103407;28;20050;-79
2023/09/13 12:18:12;;;;;;;10.38;5.28;;;;;;;27.37;50.48;100789.53;5102075;28;19912;-80
2023/09/13 12:21:06;;;;;;;11.73;5.88;;;;;;;27.42;50.36;100769.50;5117609;28;20040;-78
2023/09/13 12:23:55;;;;;;;8.23;5.93;;;;;;;27.43;50.45;100765.50;5119631;28;20141;-80
2023/09/13 12:26:52;;;;;;;7.43;5.53;;;;;;;27.48;50.16;100773.38;5126293;28;20049;-79
2023/09/13 12:29:53;;;;;;;9.85;5.55;;;;;;;27.52;50.13;100774.13;5125583;28;20046;-79
2023/09/13 12:32:47;;;;;;;11.20;7.07;;;;;;;27.56;49.59;100772.03;5124424;28;20070;-80
2023/09/13 12:35:39;;;;;;;;;;;;;;;27.60;49.48;100775.53;5122666;28;20513;-80
2023/09/13 12:38:53;;;;;;;9.48;6.05;;;;;;;27.64;49.14;100782.63;5125295;28;19912;-80
2023/09/13 12:41:48;;;;;;;6.68;4.72;;;;;;;27.70;48.60;100782.13;5119810;28;20034;-79
2023/09/13 12:44:38;;;;;;;;;;;;;;;27.72;48.62;100783.28;5121040;28;20051;-80
2023/09/13 12:47:27;;;;;;;10.73;5.22;;;;;;;27.74;48.22;100783.63;5125877;27;19911;-79
2023/09/13 12:50:25;;;;;;;6.07;5.25;;;;;;;27.79;48.51;100783.13;5117022;28;20046;-80
2023/09/13 12:53:19;;;;;;;7.45;4.72;;;;;;;27.82;48.77;100773.09;5112677;27;20043;-80
2023/09/13 12:56:14;;;;;;;8.30;5.03;;;;;;;27.84;48.65;100765.84;5114168;28;20042;-80
2023/09/13 12:59:06;;;;;;;6.32;5.05;;;;;;;27.86;48.33;100766.22;5117907;27;20046;-79
2023/09/13 13:01:59;;;;;;;7.90;4.78;;;;;;;27.90;48.09;100766.91;5118893;28;20042;-80
2023/09/13 13:04:53;;;;;;;6.47;5.38;;;;;;;27.93;47.80;100768.84;5111325;28;20166;-79
2023/09/13 13:07:47;;;;;;;6.40;4.68;;;;;;;27.96;47.61;100767.97;5111718;28;20055;-79
2023/09/13 13:10:56;;;;;;;;;;;;;;;28.02;47.29;100773.84;5119668;28;20090;-80
2023/09/13 13:13:50;;;;;;;7.00;4.57;;;;;;;28.03;47.56;100759.44;5113252;28;19916;-80
2023/09/13 13:16:45;;;;;;;7.20;4.63;;;;;;;28.07;47.70;100760.16;5119758;28;20525;-79
2023/09/13 13:19:40;;;;;;;7.68;4.60;;;;;;;28.09;47.53;100760.47;5118569;28;20062;-80
2023/09/13 13:22:34;;;;;;;4.50;4.10;;;;;;;28.11;47.64;100754.47;5117780;28;20403;-81
2023/09/13 13:25:29;;;;;;;7.50;4.28;;;;;;;28.13;47.31;100742.88;5119618;28;20694;-79
2023/09/13 13:28:24;;;;;;;7.22;4.53;;;;;;;28.15;47.57;100744.00;5110104;28;20038;-79
2023/09/13 13:31:18;;;;;;;9.38;4.75;;;;;;;28.19;47.13;100735.56;5120746;28;20050;-79
2023/09/13 13:34:13;;;;;;;6.45;4.82;;;;;;;28.22;47.15;100732.66;5112824;28;20706;-79